createdAt,value
2017-12-03T00:02:13.264Z,102135.52
2017-12-03T00:04:40.820Z,102136.34
2017-12-03T00:07:08.448Z,102131.22
2017-12-03T00:09:36.791Z,102131.95
2017-12-03T00:12:05.180Z,102136.57
2017-12-03T00:14:32.731Z,102129.53
2017-12-03T00:17:00.332Z,102123.98
2017-12-03T00:19:28.716Z,102122.79
2017-12-03T00:21:56.274Z,102118.96
2017-12-03T00:24:23.833Z,102120.93
2017-12-03T00:26:51.392Z,102120.66
2017-12-03T00:29:18.955Z,102119.44
2017-12-03T00:31:46.615Z,102123.08
2017-12-03T00:34:14.175Z,102124.17
2017-12-03T00:36:41.732Z,102117.32
2017-12-03T00:39:09.331Z,102118.00
2017-12-03T00:41:36.887Z,102114.78
2017-12-03T00:44:04.482Z,102112.48
2017-12-03T00:46:32.043Z,102107.01
2017-12-03T00:48:59.600Z,102100.95
2017-12-03T00:51:27.160Z,102098.20
2017-12-03T00:53:54.721Z,102101.92
2017-12-03T00:56:22.300Z,102095.98
2017-12-03T00:58:50.000Z,102102.36
2017-12-03T01:01:18.346Z,102099.10
2017-12-03T01:03:45.908Z,102104.51
2017-12-03T01:06:13.468Z,102098.13
2017-12-03T01:08:41.028Z,102096.45
2017-12-03T01:11:08.584Z,102097.46
2017-12-03T01:13:36.173Z,102092.50
2017-12-03T01:16:03.789Z,102093.16
2017-12-03T01:18:31.352Z,102090.38
2017-12-03T01:20:59.643Z,102091.70
2017-12-03T01:23:27.209Z,102090.27
2017-12-03T01:25:54.775Z,102092.99
2017-12-03T01:28:23.068Z,102089.36
2017-12-03T01:30:50.628Z,102088.59
2017-12-03T01:33:18.188Z,102078.08
2017-12-03T01:35:45.749Z,102074.24
2017-12-03T01:38:13.316Z,102077.86
2017-12-03T01:40:40.869Z,102075.83
2017-12-03T01:43:08.437Z,102074.22
2017-12-03T01:45:36.001Z,102071.73
2017-12-03T01:48:03.561Z,102066.27
2017-12-03T01:50:31.132Z,102065.09
2017-12-03T01:52:58.740Z,102061.30
2017-12-03T01:55:26.298Z,102051.10
2017-12-03T01:57:53.860Z,102053.67
2017-12-03T02:00:21.432Z,102052.48
2017-12-03T02:02:48.993Z,102047.38
2017-12-03T02:05:16.569Z,102054.78
2017-12-03T02:07:44.136Z,102050.98
2017-12-03T02:10:11.720Z,102049.77
2017-12-03T02:12:39.293Z,102046.36
2017-12-03T02:15:06.856Z,102048.79
2017-12-03T02:17:34.480Z,102048.47
2017-12-03T02:20:02.056Z,102042.00
2017-12-03T02:22:29.632Z,102040.80
2017-12-03T02:24:57.208Z,102050.66
2017-12-03T02:27:24.793Z,102041.66
2017-12-03T02:29:52.364Z,102040.84
2017-12-03T02:32:19.932Z,102043.44
2017-12-03T02:34:47.503Z,102035.27
2017-12-03T02:37:15.074Z,102033.59
2017-12-03T02:39:43.459Z,102029.28
2017-12-03T02:42:12.212Z,102032.35
2017-12-03T02:44:39.780Z,102026.80
2017-12-03T02:47:07.352Z,102031.95
2017-12-03T02:49:34.924Z,102024.23
2017-12-03T02:52:02.496Z,102026.84
2017-12-03T02:54:30.068Z,102024.25
2017-12-03T02:56:57.641Z,102022.56
2017-12-03T02:59:25.209Z,102023.05
2017-12-03T03:01:52.787Z,102024.31
2017-12-03T03:04:20.356Z,102025.98
2017-12-03T03:06:47.917Z,102021.66
2017-12-03T03:09:15.537Z,102022.05
2017-12-03T03:11:43.112Z,102021.15
2017-12-03T03:14:10.683Z,102020.17
2017-12-03T03:16:38.252Z,102012.45
2017-12-03T03:19:05.819Z,102005.45
2017-12-03T03:21:33.385Z,102008.36
2017-12-03T03:24:00.948Z,102000.80
2017-12-03T03:26:28.512Z,102002.06
2017-12-03T03:28:56.987Z,101997.70
2017-12-03T03:31:24.583Z,101996.80
2017-12-03T03:33:53.052Z,101990.78
2017-12-03T03:36:20.661Z,101991.92
2017-12-03T03:38:48.287Z,101986.77
2017-12-03T03:41:15.856Z,101986.47
2017-12-03T03:43:43.432Z,101984.72
2017-12-03T03:46:10.992Z,101984.62
2017-12-03T03:48:38.839Z,101991.80
2017-12-03T03:51:06.495Z,101989.16
2017-12-03T03:53:34.961Z,101989.86
2017-12-03T03:56:02.528Z,101983.55
2017-12-03T03:58:30.866Z,101980.45
2017-12-03T04:00:58.442Z,101975.33
2017-12-03T04:03:26.826Z,101982.09
2017-12-03T04:05:54.399Z,101976.88
2017-12-03T04:08:21.982Z,101979.06
2017-12-03T04:10:49.552Z,101977.64
2017-12-03T04:13:17.112Z,101973.73
2017-12-03T04:15:44.672Z,101971.95
2017-12-03T04:18:12.234Z,101974.23
2017-12-03T04:20:39.808Z,101976.91
2017-12-03T04:23:07.372Z,101979.45
2017-12-03T04:25:34.974Z,101972.22
2017-12-03T04:28:02.592Z,101970.27
2017-12-03T04:30:31.076Z,101972.20
2017-12-03T04:32:58.640Z,101972.13
2017-12-03T04:35:26.196Z,101969.73
2017-12-03T04:37:53.776Z,101965.04
2017-12-03T04:40:21.335Z,101966.50
2017-12-03T04:42:49.658Z,101970.52
2017-12-03T04:45:17.232Z,101957.81
2017-12-03T04:47:45.715Z,101959.42
2017-12-03T04:50:13.299Z,101962.31
2017-12-03T04:52:40.868Z,101962.31
2017-12-03T04:55:08.423Z,101960.09
2017-12-03T04:57:35.982Z,101960.99
2017-12-03T05:00:04.364Z,101957.77
2017-12-03T05:02:31.936Z,101960.92
2017-12-03T05:05:00.276Z,101956.87
2017-12-03T05:07:27.879Z,101957.73
2017-12-03T05:09:56.220Z,101954.91
2017-12-03T05:12:23.781Z,101958.14
2017-12-03T05:14:51.348Z,101952.34
2017-12-03T05:17:19.716Z,101951.60
2017-12-03T05:19:47.276Z,101951.60
2017-12-03T05:22:15.696Z,101965.06
2017-12-03T05:24:43.261Z,101950.56
2017-12-03T05:27:10.824Z,101947.59
2017-12-03T05:29:38.387Z,101941.55
2017-12-03T05:32:05.965Z,101940.30
2017-12-03T05:34:34.328Z,101940.41
2017-12-03T05:37:01.927Z,101939.17
2017-12-03T05:39:29.500Z,101941.27
2017-12-03T05:41:57.086Z,101939.22
2017-12-03T05:44:24.664Z,101937.16
2017-12-03T05:46:52.252Z,101934.45
2017-12-03T05:49:19.848Z,101936.32
2017-12-03T05:51:48.227Z,101933.65
2017-12-03T05:54:15.798Z,101933.32
2017-12-03T05:56:44.180Z,101937.91
2017-12-03T05:59:12.547Z,101930.62
2017-12-03T06:01:40.128Z,101932.69
2017-12-03T06:04:08.616Z,101936.57
2017-12-03T06:06:36.223Z,101930.24
2017-12-03T06:09:03.836Z,101937.18
2017-12-03T06:11:31.412Z,101935.79
2017-12-03T06:13:59.000Z,101922.66
2017-12-03T06:19:00.412Z,101919.80
2017-12-03T06:21:27.978Z,101920.36
2017-12-03T06:23:56.349Z,101917.79
2017-12-03T06:26:24.736Z,101919.67
2017-12-03T06:28:52.319Z,101924.47
2017-12-03T06:31:20.844Z,101922.30
2017-12-03T06:33:48.415Z,101925.32
2017-12-03T06:36:16.103Z,101919.34
2017-12-03T06:38:43.760Z,101920.61
2017-12-03T06:41:11.495Z,101921.51
2017-12-03T06:43:39.139Z,101911.69
2017-12-03T06:46:06.722Z,101917.70
2017-12-03T06:48:34.289Z,101917.27
2017-12-03T06:51:01.860Z,101909.52
2017-12-03T06:53:29.428Z,101919.84
2017-12-03T06:55:57.063Z,101917.64
2017-12-03T06:58:24.633Z,101916.80
2017-12-03T07:00:52.212Z,101920.22
2017-12-03T07:03:19.884Z,101927.08
2017-12-03T07:05:47.537Z,101924.58
2017-12-03T07:08:15.104Z,101921.98
2017-12-03T07:10:42.672Z,101924.56
2017-12-03T07:13:10.276Z,101921.58
2017-12-03T07:15:37.851Z,101923.26
2017-12-03T07:18:05.467Z,101928.34
2017-12-03T07:20:33.107Z,101930.50
2017-12-03T07:23:00.680Z,101933.06
2017-12-03T07:25:28.252Z,101930.50
2017-12-03T07:27:56.597Z,101935.16
2017-12-03T07:30:24.882Z,101933.93
2017-12-03T07:32:53.225Z,101933.42
2017-12-03T07:35:21.492Z,101929.99
2017-12-03T07:37:49.767Z,101927.45
2017-12-03T07:40:18.039Z,101930.46
2017-12-03T07:42:46.548Z,101932.13
2017-12-03T07:45:14.117Z,101937.66
2017-12-03T07:47:41.712Z,101932.91
2017-12-03T07:50:09.304Z,101938.85
2017-12-03T07:52:36.875Z,101938.44
2017-12-03T07:55:04.450Z,101935.47
2017-12-03T07:57:32.117Z,101934.91
2017-12-03T07:59:59.756Z,101927.66
2017-12-03T08:02:27.334Z,101926.25
2017-12-03T08:04:54.904Z,101931.81
2017-12-03T08:07:22.473Z,101933.11
2017-12-03T08:09:50.048Z,101935.65
2017-12-03T08:12:17.619Z,101934.80
2017-12-03T08:14:45.223Z,101926.96
2017-12-03T08:17:12.791Z,101928.22
2017-12-03T08:19:40.367Z,101934.20
2017-12-03T08:22:07.936Z,101935.03
2017-12-03T08:24:36.321Z,101927.36
2017-12-03T08:27:03.897Z,101924.08
2017-12-03T08:29:31.499Z,101926.66
2017-12-03T08:31:59.108Z,101926.63
2017-12-03T08:34:26.679Z,101926.66
2017-12-03T08:36:54.249Z,101920.70
2017-12-03T08:39:21.873Z,101909.11
2017-12-03T08:41:49.434Z,101914.25
2017-12-03T08:44:17.016Z,101915.34
2017-12-03T08:46:44.580Z,101910.17
2017-12-03T08:49:12.137Z,101908.85
2017-12-03T08:51:39.740Z,101912.99
2017-12-03T08:54:07.333Z,101899.73
2017-12-03T08:56:35.171Z,101911.65
2017-12-03T08:59:02.742Z,101903.41
2017-12-03T09:01:31.225Z,101901.20
2017-12-03T09:03:59.625Z,101901.95
2017-12-03T09:06:27.234Z,101906.94
2017-12-03T09:08:54.851Z,101898.78
2017-12-03T09:11:22.420Z,101897.36
2017-12-03T09:13:50.737Z,101890.95
2017-12-03T09:16:19.077Z,101892.70
2017-12-03T09:18:47.487Z,101889.17
2017-12-03T09:21:15.052Z,101882.16
2017-12-03T09:23:42.644Z,101878.58
2017-12-03T09:26:10.200Z,101876.70
2017-12-03T09:28:37.794Z,101870.69
2017-12-03T09:31:05.356Z,101866.20
2017-12-03T09:33:32.947Z,101868.31
2017-12-03T09:36:00.615Z,101867.37
2017-12-03T09:38:28.227Z,101860.77
2017-12-03T09:40:55.832Z,101856.08
2017-12-03T09:43:23.429Z,101861.89
2017-12-03T09:45:51.138Z,101860.85
2017-12-03T09:48:19.801Z,101858.15
2017-12-03T09:50:47.384Z,101852.16
2017-12-03T09:53:15.113Z,101844.47
2017-12-03T09:55:43.551Z,101840.16
2017-12-03T09:58:12.583Z,101836.24
2017-12-03T10:00:41.921Z,101842.75
2017-12-03T10:03:10.472Z,101836.34
2017-12-03T10:05:38.035Z,101825.73
2017-12-03T10:08:05.636Z,101818.36
2017-12-03T10:10:34.007Z,101812.44
2017-12-03T10:13:02.636Z,101800.52
2017-12-03T10:15:30.896Z,101797.08
2017-12-03T10:17:59.288Z,101792.89
2017-12-03T10:20:27.648Z,101787.66
2017-12-03T10:22:55.920Z,101794.66
2017-12-03T10:25:23.477Z,101784.77
2017-12-03T10:27:51.125Z,101775.36
2017-12-03T10:30:18.701Z,101767.77
2017-12-03T10:32:46.595Z,101762.44
2017-12-03T10:35:14.632Z,101762.75
2017-12-03T10:37:56.177Z,101761.19
2017-12-03T10:40:24.444Z,101765.31
2017-12-03T10:42:52.580Z,101767.72
2017-12-03T10:45:21.091Z,101769.07
2017-12-03T10:47:49.406Z,101762.67
2017-12-03T10:50:16.987Z,101759.44
2017-12-03T10:52:44.630Z,101764.35
2017-12-03T10:55:12.228Z,101754.86
2017-12-03T10:57:40.828Z,101751.05
2017-12-03T11:00:08.463Z,101742.64
2017-12-03T11:02:36.022Z,101746.44
2017-12-03T11:05:03.585Z,101740.91
2017-12-03T11:07:31.676Z,101736.03
2017-12-03T11:10:00.268Z,101736.66
2017-12-03T11:12:28.723Z,101729.26
2017-12-03T11:14:56.402Z,101727.78
2017-12-03T11:17:23.920Z,101723.18
2017-12-03T11:19:51.537Z,101725.02
2017-12-03T11:22:21.976Z,101717.56
2017-12-03T11:24:51.095Z,101713.56
2017-12-03T11:27:18.660Z,101710.04
2017-12-03T11:29:46.219Z,101712.02
2017-12-03T11:32:13.796Z,101707.33
2017-12-03T11:34:41.357Z,101705.36
2017-12-03T11:37:08.920Z,101700.13
2017-12-03T11:39:37.152Z,101693.92
2017-12-03T11:42:04.854Z,101692.44
2017-12-03T11:44:32.528Z,101689.67
2017-12-03T11:47:00.142Z,101677.91
2017-12-03T11:49:27.744Z,101680.22
2017-12-03T11:51:55.329Z,101668.44
2017-12-03T11:54:22.884Z,101669.67
2017-12-03T11:56:50.685Z,101664.09
2017-12-03T11:59:19.365Z,101654.25
2017-12-03T12:01:47.794Z,101651.01
2017-12-03T12:04:15.432Z,101641.66
2017-12-03T12:06:43.152Z,101646.88
2017-12-03T12:09:10.766Z,101644.86
2017-12-03T12:11:38.506Z,101634.77
2017-12-03T12:14:06.137Z,101642.63
2017-12-03T12:16:33.732Z,101638.59
2017-12-03T12:19:01.400Z,101639.63
2017-12-03T12:21:29.611Z,101637.03
2017-12-03T12:23:57.842Z,101634.38
2017-12-03T12:26:25.826Z,101624.86
2017-12-03T12:28:53.477Z,101626.41
2017-12-03T12:31:21.960Z,101626.34
2017-12-03T12:33:49.791Z,101620.56
2017-12-03T12:36:18.293Z,101621.03
2017-12-03T12:38:45.979Z,101621.84
2017-12-03T12:41:13.641Z,101611.64
2017-12-03T12:43:41.884Z,101610.81
2017-12-03T12:46:09.542Z,101608.19
2017-12-03T12:48:37.124Z,101603.81
2017-12-03T12:51:05.580Z,101605.60
2017-12-03T12:53:53.598Z,101600.25
2017-12-03T12:56:21.250Z,101590.27
2017-12-03T12:58:48.813Z,101586.80
2017-12-03T13:01:17.113Z,101582.61
2017-12-03T13:03:44.682Z,101581.28
2017-12-03T13:06:13.051Z,101583.06
2017-12-03T13:08:41.408Z,101584.43
2017-12-03T13:11:08.966Z,101574.77
2017-12-03T13:13:36.565Z,101575.30
2017-12-03T13:16:04.132Z,101575.66
2017-12-03T13:18:31.700Z,101570.52
2017-12-03T13:20:59.261Z,101566.94
2017-12-03T13:23:26.858Z,101568.70
2017-12-03T13:25:54.529Z,101569.73
2017-12-03T13:28:22.944Z,101568.06
2017-12-03T13:30:50.504Z,101558.66
2017-12-03T13:33:18.061Z,101556.19
2017-12-03T13:35:46.617Z,101550.80
2017-12-03T13:38:14.188Z,101553.44
2017-12-03T13:40:41.768Z,101553.16
2017-12-03T13:43:09.351Z,101555.84
2017-12-03T13:45:37.809Z,101559.30
2017-12-03T13:48:05.370Z,101556.33
2017-12-03T13:50:44.187Z,101551.43
2017-12-03T13:53:13.315Z,101547.70
2017-12-03T13:55:43.128Z,101544.42
2017-12-03T13:58:13.579Z,101545.54
2017-12-03T14:03:31.409Z,101533.14
2017-12-03T14:05:59.247Z,101532.19
2017-12-03T14:08:26.810Z,101530.96
2017-12-03T14:10:57.868Z,101533.75
2017-12-03T14:13:25.500Z,101524.52
2017-12-03T14:15:53.116Z,101518.68
2017-12-03T14:18:20.675Z,101516.05
2017-12-03T14:20:50.497Z,101518.20
2017-12-03T14:23:26.293Z,101517.64
2017-12-03T14:25:53.884Z,101517.58
2017-12-03T14:28:22.129Z,101520.91
2017-12-03T14:30:49.713Z,101520.59
2017-12-03T14:33:17.274Z,101526.27
2017-12-03T14:35:44.864Z,101514.39
2017-12-03T14:38:12.424Z,101520.06
2017-12-03T14:40:39.984Z,101528.53
2017-12-03T14:43:07.550Z,101522.64
2017-12-03T14:45:35.147Z,101516.79
2017-12-03T14:48:02.712Z,101517.42
2017-12-03T14:50:30.277Z,101525.63
2017-12-03T14:52:57.883Z,101522.02
2017-12-03T14:55:25.442Z,101523.98
2017-12-03T14:57:53.038Z,101521.48
2017-12-03T15:00:20.596Z,101512.13
2017-12-03T15:02:48.161Z,101513.28
2017-12-03T15:05:15.796Z,101511.20
2017-12-03T15:07:43.360Z,101516.98
2017-12-03T15:10:11.803Z,101512.67
2017-12-03T15:12:39.369Z,101509.73
2017-12-03T15:15:06.938Z,101512.31
2017-12-03T15:17:34.523Z,101503.20
2017-12-03T15:20:02.189Z,101499.53
2017-12-03T15:22:29.751Z,101497.56
2017-12-03T15:24:57.314Z,101489.94
2017-12-03T15:27:25.603Z,101485.39
2017-12-03T15:29:54.068Z,101492.52
2017-12-03T15:32:21.625Z,101489.33
2017-12-03T15:34:49.285Z,101492.95
2017-12-03T15:37:17.532Z,101483.92
2017-12-03T15:39:45.101Z,101490.00
2017-12-03T15:42:12.668Z,101484.05
2017-12-03T15:44:40.238Z,101483.87
2017-12-03T15:47:08.632Z,101485.09
2017-12-03T15:49:36.193Z,101486.61
2017-12-03T15:52:03.759Z,101478.58
2017-12-03T15:54:32.127Z,101479.92
2017-12-03T15:56:59.733Z,101477.84
2017-12-03T15:59:27.310Z,101472.98
2017-12-03T16:01:55.673Z,101471.09
2017-12-03T16:04:23.236Z,101475.94
2017-12-03T16:06:50.805Z,101478.95
2017-12-03T16:09:18.376Z,101473.73
2017-12-03T16:11:45.927Z,101478.02
2017-12-03T16:14:22.315Z,101470.36
2017-12-03T16:16:49.884Z,101472.99
2017-12-03T16:19:17.563Z,101470.71
2017-12-03T16:21:45.455Z,101469.86
2017-12-03T16:24:13.407Z,101464.31
2017-12-03T16:26:41.647Z,101470.23
2017-12-03T16:29:09.387Z,101468.20
2017-12-03T16:31:37.008Z,101462.49
2017-12-03T16:34:04.576Z,101465.25
2017-12-03T16:36:32.236Z,101465.60
2017-12-03T16:38:59.844Z,101465.98
2017-12-03T16:41:27.426Z,101465.62
2017-12-03T16:43:54.989Z,101466.14
2017-12-03T16:46:22.553Z,101470.31
2017-12-03T16:48:50.143Z,101458.78
2017-12-03T16:51:17.704Z,101459.57
2017-12-03T16:53:45.355Z,101459.27
2017-12-03T16:56:12.918Z,101455.41
2017-12-03T16:58:40.488Z,101456.75
2017-12-03T17:01:08.052Z,101455.82
2017-12-03T17:03:35.708Z,101464.50
2017-12-03T17:06:03.660Z,101466.32
2017-12-03T17:08:31.487Z,101468.47
2017-12-03T17:10:59.111Z,101469.66
2017-12-03T17:13:26.794Z,101467.98
2017-12-03T17:16:06.396Z,101457.84
2017-12-03T17:18:35.119Z,101471.47
2017-12-03T17:21:04.326Z,101458.84
2017-12-03T17:23:42.156Z,101467.32
2017-12-03T17:26:17.256Z,101458.73
2017-12-03T17:28:49.233Z,101462.78
2017-12-03T17:31:17.005Z,101461.91
2017-12-03T17:33:44.664Z,101451.91
2017-12-03T17:36:12.299Z,101448.97
2017-12-03T17:38:39.884Z,101446.45
2017-12-03T17:41:07.796Z,101442.09
2017-12-03T17:43:35.397Z,101443.92
2017-12-03T17:46:02.992Z,101444.30
2017-12-03T17:48:30.650Z,101443.44
2017-12-03T17:50:58.212Z,101448.91
2017-12-03T17:53:25.785Z,101446.50
2017-12-03T17:55:54.181Z,101448.59
2017-12-03T17:58:21.752Z,101443.56
2017-12-03T18:00:49.380Z,101454.54
2017-12-03T18:03:17.319Z,101449.77
2017-12-03T18:05:44.944Z,101439.31
2017-12-03T18:08:12.544Z,101435.75
2017-12-03T18:10:40.105Z,101441.16
2017-12-03T18:13:08.594Z,101434.48
2017-12-03T18:15:36.168Z,101432.94
2017-12-03T18:18:06.057Z,101432.43
2017-12-03T18:20:33.664Z,101434.41
2017-12-03T18:23:01.310Z,101433.06
2017-12-03T18:25:28.886Z,101424.20
2017-12-03T18:27:56.577Z,101426.05
2017-12-03T18:30:24.197Z,101431.09
2017-12-03T18:32:51.866Z,101429.13
2017-12-03T18:35:19.440Z,101432.02
2017-12-03T18:37:47.014Z,101435.83
2017-12-03T18:40:15.688Z,101429.07
2017-12-03T18:42:43.272Z,101440.66
2017-12-03T18:45:10.849Z,101435.08
2017-12-03T18:47:38.416Z,101427.91
2017-12-03T18:50:05.986Z,101428.03
2017-12-03T18:52:33.644Z,101435.39
2017-12-03T18:55:01.208Z,101417.72
2017-12-03T18:57:28.772Z,101421.56
2017-12-03T18:59:56.531Z,101418.87
2017-12-03T19:02:24.104Z,101419.36
2017-12-03T19:04:51.694Z,101418.31
2017-12-03T19:07:19.303Z,101422.08
2017-12-03T19:09:46.877Z,101418.14
2017-12-03T19:12:14.577Z,101418.92
2017-12-03T19:14:43.059Z,101412.66
2017-12-03T19:17:10.678Z,101412.79
2017-12-03T19:19:41.537Z,101411.09
2017-12-03T19:22:20.962Z,101406.20
2017-12-03T19:25:01.055Z,101399.64
2017-12-03T19:27:40.461Z,101404.23
2017-12-03T19:32:49.929Z,101405.41
2017-12-03T19:35:34.316Z,101405.55
2017-12-03T19:38:08.392Z,101404.39
2017-12-03T19:40:39.794Z,101403.50
2017-12-03T19:43:15.070Z,101400.31
2017-12-03T19:46:09.285Z,101393.82
2017-12-03T19:48:58.206Z,101399.53
2017-12-03T19:51:44.456Z,101401.24
2017-12-03T19:57:08.616Z,101391.55
2017-12-03T19:59:36.185Z,101394.05
2017-12-03T20:02:03.753Z,101398.20
2017-12-03T20:04:31.436Z,101394.25
2017-12-03T20:06:59.000Z,101393.47
2017-12-03T20:09:26.571Z,101389.53
2017-12-03T20:11:54.145Z,101389.95
2017-12-03T20:14:22.804Z,101386.94
2017-12-03T20:16:50.447Z,101386.59
2017-12-03T20:19:19.670Z,101391.62
2017-12-03T20:21:47.377Z,101380.75
2017-12-03T20:24:15.300Z,101392.77
2017-12-03T20:26:43.676Z,101382.77
2017-12-03T20:29:11.947Z,101378.66
2017-12-03T20:31:40.161Z,101375.25
2017-12-03T20:34:09.332Z,101381.46
2017-12-03T20:36:36.893Z,101372.11
2017-12-03T20:39:07.362Z,101385.72
2017-12-03T20:41:36.794Z,101370.98
2017-12-03T20:44:09.118Z,101369.61
2017-12-03T20:46:36.743Z,101366.68
2017-12-03T20:49:05.023Z,101374.44
2017-12-03T20:51:33.873Z,101372.20
2017-12-03T20:54:01.964Z,101372.98
2017-12-03T20:56:31.287Z,101368.91
2017-12-03T20:59:00.891Z,101367.76
2017-12-03T21:01:32.585Z,101361.36
2017-12-03T21:04:00.333Z,101367.33
2017-12-03T21:06:29.696Z,101364.45
2017-12-03T21:08:57.484Z,101377.77
2017-12-03T21:11:29.317Z,101380.42
2017-12-03T21:14:03.234Z,101370.82
2017-12-03T21:16:33.968Z,101366.08
2017-12-03T21:19:06.142Z,101370.74
2017-12-03T21:21:34.665Z,101373.56
2017-12-03T21:24:02.814Z,101383.22
2017-12-03T21:26:31.337Z,101368.97
2017-12-03T21:29:00.065Z,101365.05
2017-12-03T21:31:30.529Z,101362.52
2017-12-03T21:33:59.202Z,101359.52
2017-12-03T21:36:27.665Z,101352.64
2017-12-03T21:38:55.231Z,101347.61
2017-12-03T21:41:23.701Z,101345.25
2017-12-03T21:43:51.917Z,101357.10
2017-12-03T21:46:19.664Z,101357.94
2017-12-03T21:48:47.284Z,101350.56
2017-12-03T21:51:15.733Z,101355.02
2017-12-03T21:53:43.304Z,101358.97
2017-12-03T21:56:10.884Z,101361.03
2017-12-03T21:58:39.495Z,101362.20
2017-12-03T22:01:07.919Z,101364.05
2017-12-03T22:03:35.489Z,101369.42
2017-12-03T22:06:03.109Z,101361.88
2017-12-03T22:08:30.712Z,101367.78
2017-12-03T22:10:58.373Z,101371.66
2017-12-03T22:13:25.992Z,101375.53
2017-12-03T22:15:53.557Z,101375.61
2017-12-03T22:18:21.156Z,101373.36
2017-12-03T22:20:48.736Z,101379.77
2017-12-03T22:23:16.340Z,101378.09
2017-12-03T22:25:43.932Z,101370.86
2017-12-03T22:28:12.292Z,101367.12
2017-12-03T22:30:39.852Z,101368.64
2017-12-03T22:33:08.330Z,101372.30
2017-12-03T22:35:35.904Z,101380.64
2017-12-03T22:38:03.577Z,101379.36
2017-12-03T22:40:31.251Z,101371.09
2017-12-03T22:42:58.820Z,101365.56
2017-12-03T22:45:27.272Z,101368.52
2017-12-03T22:47:54.844Z,101354.00
2017-12-03T22:50:22.478Z,101339.56
2017-12-03T22:52:50.085Z,101344.39
2017-12-03T22:55:17.658Z,101348.04
2017-12-03T22:57:45.220Z,101353.13
2017-12-03T23:00:12.856Z,101346.03
2017-12-03T23:02:40.423Z,101347.19
2017-12-03T23:05:07.996Z,101351.75
2017-12-03T23:07:35.604Z,101353.22
2017-12-03T23:10:03.235Z,101348.92
2017-12-03T23:12:30.805Z,101350.27
2017-12-03T23:14:59.292Z,101333.71
2017-12-03T23:17:26.860Z,101337.91
2017-12-03T23:19:54.428Z,101337.05
2017-12-03T23:22:22.032Z,101345.61
2017-12-03T23:24:50.233Z,101342.42
2017-12-03T23:27:18.711Z,101356.78
2017-12-03T23:29:47.073Z,101348.23
2017-12-03T23:32:15.563Z,101338.22
2017-12-03T23:34:43.132Z,101329.61
2017-12-03T23:37:10.740Z,101329.11
2017-12-03T23:39:38.364Z,101330.73
2017-12-03T23:42:06.003Z,101336.54
2017-12-03T23:44:34.509Z,101324.70
2017-12-03T23:47:02.110Z,101331.22
2017-12-03T23:49:30.519Z,101346.02
2017-12-03T23:51:58.855Z,101339.48
2017-12-03T23:54:27.215Z,101340.52
2017-12-03T23:56:54.810Z,101338.27
2017-12-03T23:59:22.369Z,101343.46
